Time;durP1;ratioP1;P1;durP2;ratioP2;P2;SDS_P1;SDS_P2;PMS_P1;PMS_P2;Temp;Humidity;BMP_temperature;BMP_pressure;BME280_temperature;BME280_humidity;BME280_pressure;Samples;Min_cycle;Max_cycle;Signal;HPM_P1;HPM_P2
2021/10/24 00:00:01;;;;;;;10.35;6.57;;;7.70;99.90;;;;;;5033046;28;20190;-67
2021/10/24 00:02:27;;;;;;;11.10;6.45;;;7.80;99.90;;;;;;5034718;28;20037;-67
2021/10/24 00:04:53;;;;;;;12.07;7.10;;;7.70;99.90;;;;;;5034159;28;20038;-67
2021/10/24 00:07:19;;;;;;;9.63;6.78;;;7.70;99.90;;;;;;5033520;28;20479;-67
2021/10/24 00:09:44;;;;;;;10.55;6.22;;;7.70;99.90;;;;;;5034588;28;20514;-67
2021/10/24 00:12:10;;;;;;;14.95;7.13;;;7.60;99.90;;;;;;5034292;28;20029;-67
2021/10/24 00:14:36;;;;;;;11.32;6.97;;;7.60;99.90;;;;;;5032997;28;20098;-67
2021/10/24 00:17:01;;;;;;;13.38;7.28;;;7.60;99.90;;;;;;5033758;28;20041;-67
2021/10/24 00:19:27;;;;;;;12.60;6.95;;;7.60;99.90;;;;;;5034650;28;20382;-67
2021/10/24 00:21:53;;;;;;;12.48;7.43;;;7.60;99.90;;;;;;5033734;28;20052;-66
2021/10/24 00:24:18;;;;;;;14.30;7.60;;;7.60;99.90;;;;;;5034011;28;20025;-66
2021/10/24 00:26:44;;;;;;;13.85;7.75;;;7.60;99.90;;;;;;5034036;28;20451;-67
2021/10/24 00:29:10;;;;;;;13.05;7.80;;;7.50;99.90;;;;;;5032309;28;20121;-67
2021/10/24 00:31:36;;;;;;;12.52;7.18;;;7.60;99.90;;;;;;5033991;28;20336;-66
2021/10/24 00:34:03;;;;;;;11.57;6.97;;;7.50;99.90;;;;;;5033235;28;20084;-67
2021/10/24 00:36:28;;;;;;;12.70;7.65;;;7.60;99.90;;;;;;5034051;28;20117;-66
2021/10/24 00:38:54;;;;;;;11.88;7.28;;;7.70;99.90;;;;;;5032287;28;20120;-66
2021/10/24 00:41:20;;;;;;;15.25;7.43;;;7.70;99.90;;;;;;5033782;28;20032;-67
2021/10/24 00:43:45;;;;;;;13.38;6.57;;;7.70;99.90;;;;;;5033809;28;20060;-67
2021/10/24 00:46:11;;;;;;;14.85;8.00;;;7.60;99.90;;;;;;5032129;28;20356;-67
2021/10/24 00:48:36;;;;;;;12.57;7.68;;;7.70;99.90;;;;;;5033904;28;20021;-67
2021/10/24 00:51:02;;;;;;;10.23;7.10;;;7.60;99.90;;;;;;5033063;28;20308;-69
2021/10/24 00:53:28;;;;;;;12.82;7.50;;;7.50;99.90;;;;;;5033571;28;20026;-66
2021/10/24 00:55:54;;;;;;;17.27;7.03;;;7.50;99.90;;;;;;5033263;28;20410;-67
2021/10/24 00:58:21;;;;;;;12.27;7.38;;;7.50;99.90;;;;;;5032223;28;20026;-66
2021/10/24 01:00:46;;;;;;;14.82;7.45;;;7.40;99.90;;;;;;5031919;28;20044;-67
2021/10/24 01:03:12;;;;;;;10.88;6.25;;;7.50;99.90;;;;;;5033230;28;20109;-66
2021/10/24 01:05:40;;;;;;;12.80;7.82;;;7.40;99.90;;;;;;5032244;28;20040;-67
2021/10/24 01:08:08;;;;;;;13.40;7.10;;;7.40;99.90;;;;;;5033031;28;20029;-66
2021/10/24 01:10:35;;;;;;;9.75;6.47;;;7.40;99.90;;;;;;5033575;28;20057;-67
2021/10/24 01:13:01;;;;;;;10.63;6.97;;;7.30;99.90;;;;;;5032724;28;20135;-66
2021/10/24 01:15:26;;;;;;;16.33;7.63;;;7.30;99.90;;;;;;5033155;28;20108;-67
2021/10/24 01:17:52;;;;;;;11.38;6.90;;;7.30;99.90;;;;;;5032807;28;20120;-67
2021/10/24 01:20:23;;;;;;;12.18;6.75;;;7.30;99.90;;;;;;5033351;28;20505;-65
2021/10/24 01:22:51;;;;;;;11.68;6.80;;;7.30;99.90;;;;;;5033354;28;20119;-66
2021/10/24 01:25:17;;;;;;;11.18;6.70;;;7.30;99.90;;;;;;5033599;28;20029;-67
2021/10/24 01:27:44;;;;;;;10.05;6.70;;;7.40;99.90;;;;;;5032778;28;20053;-66
2021/10/24 01:30:10;;;;;;;14.52;7.15;;;7.40;99.90;;;;;;5032518;28;20030;-67
2021/10/24 01:32:36;;;;;;;8.73;6.78;;;7.30;99.90;;;;;;5032785;28;20109;-67
2021/10/24 01:35:04;;;;;;;10.48;5.95;;;7.30;99.90;;;;;;5030534;28;20132;-66
2021/10/24 01:37:32;;;;;;;10.88;6.90;;;7.20;99.90;;;;;;5033030;28;20029;-66
2021/10/24 01:39:59;;;;;;;14.93;7.28;;;7.30;99.90;;;;;;5030838;28;20064;-66
2021/10/24 01:42:25;;;;;;;10.68;5.88;;;7.20;99.90;;;;;;5032673;28;20025;-67
2021/10/24 01:44:51;;;;;;;12.80;6.90;;;7.10;99.90;;;;;;5031231;28;20492;-66
2021/10/24 01:47:17;;;;;;;7.05;5.43;;;7.10;99.90;;;;;;5031883;28;20029;-66
2021/10/24 01:49:42;;;;;;;12.98;7.38;;;7.20;99.90;;;;;;5032762;28;20382;-66
2021/10/24 01:52:08;;;;;;;8.57;5.88;;;7.10;99.90;;;;;;5030756;28;20438;-67
2021/10/24 01:54:33;;;;;;;11.18;6.82;;;7.10;99.90;;;;;;5032634;28;20033;-67
2021/10/24 01:56:59;;;;;;;16.35;7.28;;;7.10;99.90;;;;;;5030621;28;20030;-66
2021/10/24 01:59:25;;;;;;;11.50;5.75;;;7.10;99.90;;;;;;5032572;28;20474;-66
2021/10/24 02:01:50;;;;;;;9.30;6.07;;;7.10;99.90;;;;;;5032157;28;20084;-66
2021/10/24 02:04:16;;;;;;;11.85;6.05;;;7.20;99.90;;;;;;5031581;28;20486;-67
2021/10/24 02:06:42;;;;;;;8.80;5.60;;;7.10;99.90;;;;;;5032652;28;20040;-66
2021/10/24 02:09:07;;;;;;;7.78;5.32;;;7.00;99.90;;;;;;5031446;28;20137;-66
2021/10/24 02:11:33;;;;;;;9.63;6.35;;;7.10;99.90;;;;;;5032156;28;20036;-66
2021/10/24 02:13:59;;;;;;;9.88;5.30;;;7.00;99.90;;;;;;5029656;28;20025;-66
2021/10/24 02:16:24;;;;;;;9.90;5.50;;;7.00;99.90;;;;;;5032378;28;20460;-67
2021/10/24 02:18:50;;;;;;;10.15;5.32;;;7.00;99.90;;;;;;5031946;28;20032;-67
2021/10/24 02:21:16;;;;;;;14.27;6.20;;;7.00;99.90;;;;;;5030191;28;20034;-66
2021/10/24 02:23:42;;;;;;;14.20;5.65;;;6.90;99.90;;;;;;5031983;28;20112;-66
2021/10/24 02:26:08;;;;;;;8.88;6.18;;;6.90;99.90;;;;;;5031287;28;20096;-67
2021/10/24 02:28:34;;;;;;;11.93;6.72;;;6.90;99.90;;;;;;5031857;28;20049;-65
2021/10/24 02:31:00;;;;;;;9.40;5.72;;;6.80;99.90;;;;;;5031186;28;20083;-66
2021/10/24 02:33:25;;;;;;;9.45;5.70;;;6.70;99.90;;;;;;5031596;28;20025;-66
2021/10/24 02:35:51;;;;;;;7.75;5.72;;;6.70;99.90;;;;;;5031219;28;20404;-66
2021/10/24 02:38:17;;;;;;;8.80;5.93;;;6.70;99.90;;;;;;5030664;28;20037;-67
2021/10/24 02:40:43;;;;;;;11.10;6.78;;;6.70;99.90;;;;;;5031658;28;20440;-66
2021/10/24 02:43:10;;;;;;;11.48;5.85;;;6.60;99.90;;;;;;5029644;28;20030;-67
2021/10/24 02:45:36;;;;;;;11.68;5.63;;;6.60;99.90;;;;;;5030273;28;20040;-66
2021/10/24 02:48:04;;;;;;;12.65;6.35;;;6.70;99.90;;;;;;5031065;28;20017;-67
2021/10/24 02:50:29;;;;;;;9.32;5.95;;;6.60;99.90;;;;;;5031313;28;20104;-67
2021/10/24 02:52:55;;;;;;;11.85;6.00;;;6.60;99.90;;;;;;5031287;28;20132;-67
2021/10/24 02:55:21;;;;;;;8.57;6.03;;;6.60;99.90;;;;;;5030706;28;20044;-67
2021/10/24 02:57:47;;;;;;;8.82;5.75;;;6.60;99.90;;;;;;5031669;28;20115;-67
2021/10/24 03:00:14;;;;;;;11.75;6.25;;;6.50;99.90;;;;;;5030703;28;20075;-67
2021/10/24 03:02:39;;;;;;;14.10;6.65;;;6.40;99.90;;;;;;5031103;28;20036;-67
2021/10/24 03:05:07;;;;;;;10.25;6.07;;;6.50;99.90;;;;;;5030757;28;20026;-67
2021/10/24 03:07:32;;;;;;;15.70;5.30;;;6.50;99.90;;;;;;5030985;28;20428;-67
2021/10/24 03:09:58;;;;;;;12.70;5.32;;;6.50;99.90;;;;;;5030629;28;20135;-69
2021/10/24 03:12:24;;;;;;;11.82;5.68;;;6.40;99.90;;;;;;5030760;28;20108;-67
2021/10/24 03:14:49;;;;;;;7.57;5.60;;;6.40;99.90;;;;;;5031294;28;20356;-67
2021/10/24 03:17:15;;;;;;;16.77;6.15;;;6.30;99.90;;;;;;5028995;28;20343;-68
2021/10/24 03:19:41;;;;;;;7.95;5.68;;;6.30;99.90;;;;;;5030851;28;20036;-65
2021/10/24 03:22:07;;;;;;;9.38;5.40;;;6.30;99.90;;;;;;5030572;28;20067;-66
2021/10/24 03:24:34;;;;;;;12.20;5.95;;;6.40;99.90;;;;;;5029314;28;20061;-66
2021/10/24 03:27:00;;;;;;;14.88;6.15;;;6.30;99.90;;;;;;5041647;28;20167;-67
2021/10/24 03:29:26;;;;;;;9.70;5.53;;;6.40;99.90;;;;;;5034694;28;20436;-66
2021/10/24 03:31:52;;;;;;;19.60;6.72;;;6.30;99.90;;;;;;5031460;28;20025;-66
2021/10/24 03:34:19;;;;;;;9.75;5.57;;;6.40;99.90;;;;;;5031029;28;20033;-67
2021/10/24 03:36:45;;;;;;;6.82;4.55;;;6.40;99.90;;;;;;5030542;28;20029;-66
2021/10/24 03:39:11;;;;;;;11.48;5.88;;;6.30;99.90;;;;;;5030076;28;20034;-67
2021/10/24 03:41:37;;;;;;;8.55;5.13;;;6.30;99.90;;;;;;5030645;28;20028;-66
2021/10/24 03:44:03;;;;;;;9.10;6.40;;;6.30;99.90;;;;;;5028956;28;20026;-67
2021/10/24 03:46:31;;;;;;;6.93;4.95;;;6.20;99.90;;;;;;5030856;28;20116;-67
2021/10/24 03:48:57;;;;;;;7.18;4.93;;;6.20;99.90;;;;;;5029164;28;20028;-66
2021/10/24 03:51:23;;;;;;;10.70;4.70;;;6.20;99.90;;;;;;5028886;28;20033;-67
2021/10/24 03:53:49;;;;;;;7.90;5.18;;;6.10;99.90;;;;;;5030682;28;20140;-67
2021/10/24 03:56:15;;;;;;;8.60;5.72;;;6.10;99.90;;;;;;5030070;28;20069;-67
2021/10/24 03:58:40;;;;;;;9.25;5.53;;;6.10;99.90;;;;;;5031061;28;20026;-67
2021/10/24 04:01:06;;;;;;;8.38;4.75;;;6.10;99.90;;;;;;5030361;28;20029;-67
2021/10/24 04:03:32;;;;;;;13.32;5.38;;;6.10;99.90;;;;;;5030888;28;20064;-67
2021/10/24 04:05:58;;;;;;;12.75;5.45;;;6.10;99.90;;;;;;5030748;28;20025;-67
2021/10/24 04:08:24;;;;;;;12.50;5.30;;;6.00;99.90;;;;;;5028575;28;20036;-67
2021/10/24 04:10:50;;;;;;;7.47;4.53;;;6.00;99.90;;;;;;5029103;28;20026;-66
2021/10/24 04:13:15;;;;;;;7.63;5.07;;;6.00;99.90;;;;;;5028501;28;20061;-66
2021/10/24 04:15:42;;;;;;;10.27;5.20;;;6.10;99.90;;;;;;5030194;28;20033;-66
2021/10/24 04:18:07;;;;;;;7.32;5.28;;;6.00;99.90;;;;;;5029726;28;20087;-66
2021/10/24 04:20:33;;;;;;;7.82;5.13;;;6.00;99.90;;;;;;5030657;28;20033;-66
2021/10/24 04:22:59;;;;;;;9.10;4.95;;;6.00;99.90;;;;;;5030280;28;20109;-66
2021/10/24 04:25:25;;;;;;;8.77;5.28;;;6.00;99.90;;;;;;5029772;28;20452;-67
2021/10/24 04:27:52;;;;;;;9.95;4.95;;;5.90;99.90;;;;;;5030358;28;20200;-66
2021/10/24 04:30:17;;;;;;;10.25;5.63;;;5.90;99.90;;;;;;5029431;28;20040;-66
2021/10/24 04:32:43;;;;;;;10.25;5.57;;;5.90;99.90;;;;;;5030293;28;20021;-67
2021/10/24 04:35:11;;;;;;;10.15;5.05;;;5.90;99.90;;;;;;5029687;28;20022;-66
2021/10/24 04:37:37;;;;;;;7.07;5.07;;;5.90;99.90;;;;;;5032379;28;20057;-66
2021/10/24 04:40:04;;;;;;;8.98;5.13;;;5.80;99.90;;;;;;5033635;28;20526;-76
2021/10/24 04:42:30;;;;;;;12.00;5.18;;;5.80;99.90;;;;;;5033672;28;20448;-66
2021/10/24 04:44:56;;;;;;;7.57;4.75;;;5.70;99.90;;;;;;5033653;28;20048;-66
2021/10/24 04:47:23;;;;;;;13.63;5.10;;;5.70;99.90;;;;;;5033100;28;20036;-66
2021/10/24 04:49:49;;;;;;;10.20;4.90;;;5.60;99.90;;;;;;5032239;28;20112;-65
2021/10/24 04:52:15;;;;;;;6.07;4.90;;;5.70;99.90;;;;;;5033385;28;20025;-65
2021/10/24 04:54:40;;;;;;;7.75;5.05;;;5.70;99.90;;;;;;5033409;28;20083;-66
2021/10/24 04:57:06;;;;;;;8.23;5.43;;;5.60;99.90;;;;;;5032528;28;20045;-66
2021/10/24 04:59:32;;;;;;;6.45;5.63;;;5.60;99.90;;;;;;5033580;28;20044;-66
2021/10/24 05:01:59;;;;;;;8.45;5.20;;;5.50;99.90;;;;;;5033425;28;20030;-66
2021/10/24 05:04:24;;;;;;;12.50;5.80;;;5.50;99.90;;;;;;5032474;28;20858;-66
2021/10/24 05:06:50;;;;;;;8.07;5.00;;;5.50;99.90;;;;;;5033064;28;20052;-66
2021/10/24 05:09:17;;;;;;;7.35;5.40;;;5.50;99.90;;;;;;5031068;28;20394;-66
2021/10/24 05:11:43;;;;;;;8.30;4.85;;;5.50;99.90;;;;;;5033176;28;20104;-66
2021/10/24 05:14:09;;;;;;;13.07;6.13;;;5.50;99.90;;;;;;5031308;28;20060;-66
2021/10/24 05:16:35;;;;;;;6.65;5.03;;;5.60;99.90;;;;;;5032824;28;20040;-66
2021/10/24 05:19:01;;;;;;;7.28;5.20;;;5.60;99.90;;;;;;5033200;28;20025;-65
2021/10/24 05:21:26;;;;;;;8.52;5.45;;;5.60;99.90;;;;;;5032048;28;20030;-65
2021/10/24 05:23:52;;;;;;;8.75;4.93;;;5.60;99.90;;;;;;5032711;28;20095;-66
2021/10/24 05:26:17;;;;;;;8.65;5.05;;;5.60;99.90;;;;;;5032208;28;20054;-66
2021/10/24 05:28:44;;;;;;;6.90;4.93;;;5.50;99.90;;;;;;5033112;28;20069;-67
2021/10/24 05:31:10;;;;;;;7.53;5.07;;;5.40;99.90;;;;;;5031925;28;20560;-65
2021/10/24 05:33:36;;;;;;;7.13;5.03;;;5.40;99.90;;;;;;5031290;28;20132;-65
2021/10/24 05:36:03;;;;;;;11.82;6.05;;;5.40;99.90;;;;;;5032746;28;20029;-67
2021/10/24 05:38:28;;;;;;;7.65;5.13;;;5.40;99.90;;;;;;5032445;28;20064;-66
2021/10/24 05:40:54;;;;;;;7.88;4.88;;;5.40;99.90;;;;;;5032495;28;20390;-66
2021/10/24 05:43:20;;;;;;;9.15;6.07;;;5.40;99.90;;;;;;5031549;28;20030;-66
2021/10/24 05:45:47;;;;;;;10.50;4.15;;;5.40;99.90;;;;;;5031349;28;20447;-66
2021/10/24 05:48:13;;;;;;;9.45;4.70;;;5.40;99.90;;;;;;5064032;28;20052;-64
2021/10/24 05:50:40;;;;;;;7.55;4.97;;;5.40;99.90;;;;;;5032668;28;20032;-66
2021/10/24 05:53:06;;;;;;;5.80;4.50;;;5.40;99.90;;;;;;5033157;28;20052;-66
2021/10/24 05:55:32;;;;;;;18.10;5.47;;;5.50;99.90;;;;;;5031896;28;20036;-66
2021/10/24 05:57:58;;;;;;;8.73;4.80;;;5.40;99.90;;;;;;5032411;28;20065;-66
2021/10/24 06:00:24;;;;;;;7.65;4.90;;;5.50;99.90;;;;;;5031707;28;20057;-66
2021/10/24 06:02:49;;;;;;;7.55;4.60;;;5.40;99.90;;;;;;5032435;28;20374;-66
2021/10/24 06:05:15;;;;;;;11.35;5.03;;;5.50;99.90;;;;;;5030189;28;20029;-66
2021/10/24 06:07:40;;;;;;;12.82;6.05;;;5.50;99.90;;;;;;5032753;28;20061;-66
2021/10/24 06:10:17;;;;;;;8.65;5.03;;;5.50;99.90;;;;;;5031902;28;20478;-66
2021/10/24 06:12:45;;;;;;;8.25;5.65;;;5.50;99.90;;;;;;5032316;28;20048;-66
2021/10/24 06:15:16;;;;;;;11.13;5.10;;;5.50;99.90;;;;;;5030325;28;20047;-66
2021/10/24 06:17:43;;;;;;;9.63;5.53;;;5.50;99.90;;;;;;5032192;28;20037;-66
2021/10/24 06:20:10;;;;;;;10.45;5.07;;;5.50;99.90;;;;;;5031418;28;20029;-75
2021/10/24 06:22:36;;;;;;;10.60;6.72;;;5.40;99.90;;;;;;5031832;28;20025;-66
2021/10/24 06:25:03;;;;;;;8.23;4.97;;;5.40;99.90;;;;;;5031808;28;20029;-65
2021/10/24 06:27:28;;;;;;;9.63;5.50;;;5.40;99.90;;;;;;5029684;28;20049;-66
2021/10/24 06:29:54;;;;;;;9.50;5.38;;;5.40;99.90;;;;;;5031620;28;20115;-66
2021/10/24 06:32:20;;;;;;;13.85;6.10;;;5.50;99.90;;;;;;5031009;28;20104;-65
2021/10/24 06:34:45;;;;;;;7.13;5.43;;;5.70;99.90;;;;;;5031959;28;20029;-66
2021/10/24 06:37:16;;;;;;;9.00;5.57;;;5.80;99.90;;;;;;5029796;28;20033;-67
2021/10/24 06:39:42;;;;;;;7.70;5.38;;;6.10;99.90;;;;;;5031572;28;20570;-66
2021/10/24 06:42:08;;;;;;;10.98;4.63;;;6.30;99.90;;;;;;5031432;28;20030;-66
2021/10/24 06:44:33;;;;;;;10.63;6.07;;;6.40;99.90;;;;;;5030682;28;20026;-66
2021/10/24 06:46:59;;;;;;;7.07;5.30;;;6.80;99.90;;;;;;5031365;28;20440;-66
2021/10/24 06:49:24;;;;;;;7.40;4.57;;;7.00;99.90;;;;;;5030968;28;20034;-67
2021/10/24 06:51:50;;;;;;;9.77;5.32;;;7.20;99.90;;;;;;5030054;28;20048;-66
2021/10/24 06:54:16;;;;;;;7.75;4.88;;;7.40;99.90;;;;;;5030651;28;20069;-65
2021/10/24 06:56:41;;;;;;;8.27;4.35;;;7.40;99.90;;;;;;5029608;28;20446;-66
2021/10/24 06:59:07;;;;;;;8.23;4.85;;;7.80;99.90;;;;;;5030901;28;20026;-66
2021/10/24 07:01:33;;;;;;;8.43;4.85;;;7.80;99.90;;;;;;5030525;28;20045;-66
2021/10/24 07:03:58;;;;;;;6.20;4.57;;;8.10;99.90;;;;;;5031161;28;20475;-66
2021/10/24 07:06:24;;;;;;;7.50;5.68;;;8.20;99.90;;;;;;5029344;28;20041;-66
2021/10/24 07:08:50;;;;;;;11.85;5.38;;;8.10;99.90;;;;;;5029696;28;20030;-66
2021/10/24 07:11:16;;;;;;;8.55;4.80;;;8.70;99.90;;;;;;5030533;28;20059;-66
2021/10/24 07:13:42;;;;;;;7.28;4.30;;;8.90;99.90;;;;;;5029597;28;20037;-65
2021/10/24 07:16:07;;;;;;;9.00;4.93;;;9.10;99.90;;;;;;5030557;28;20029;-65
2021/10/24 07:18:34;;;;;;;8.13;5.40;;;9.20;99.90;;;;;;5029237;28;20033;-67
2021/10/24 07:21:00;;;;;;;7.47;4.72;;;9.40;99.90;;;;;;5031176;28;20033;-65
2021/10/24 07:23:25;;;;;;;8.23;4.85;;;9.70;99.90;;;;;;5029036;28;20025;-66
2021/10/24 07:25:51;;;;;;;8.60;5.20;;;10.20;99.90;;;;;;5029420;28;20029;-67
2021/10/24 07:28:16;;;;;;;8.55;5.20;;;10.10;99.90;;;;;;5032432;28;20476;-68
2021/10/24 07:30:42;;;;;;;13.25;5.05;;;10.20;99.90;;;;;;5047454;28;20359;-67
2021/10/24 07:33:08;;;;;;;10.23;5.00;;;10.40;99.90;;;;;;5049517;28;20423;-66
2021/10/24 07:35:33;;;;;;;8.40;4.53;;;10.60;99.90;;;;;;5050071;28;20171;-65
2021/10/24 07:38:04;;;;;;;6.03;4.60;;;10.50;99.90;;;;;;5050836;28;20025;-66
2021/10/24 07:40:30;;;;;;;6.23;5.50;;;10.50;99.90;;;;;;5050034;28;20025;-66
2021/10/24 07:42:55;;;;;;;6.45;4.72;;;10.40;99.90;;;;;;5050293;28;20029;-67
2021/10/24 07:45:21;;;;;;;8.93;4.97;;;10.30;99.90;;;;;;5050226;28;20104;-66
2021/10/24 07:47:49;;;;;;;7.47;5.30;;;10.20;99.90;;;;;;5049574;28;20043;-67
2021/10/24 07:50:14;;;;;;;6.88;4.75;;;10.10;99.90;;;;;;5050669;28;20060;-79
2021/10/24 07:52:40;;;;;;;8.02;5.15;;;10.50;99.90;;;;;;5050695;28;20130;-67
2021/10/24 07:55:06;;;;;;;6.13;4.25;;;10.60;99.90;;;;;;5048001;28;20029;-66
2021/10/24 07:57:32;;;;;;;8.77;5.32;;;11.00;99.90;;;;;;5033119;28;20042;-65
2021/10/24 07:59:57;;;;;;;9.85;5.28;;;11.30;99.90;;;;;;5043115;28;20032;-65
2021/10/24 08:02:23;;;;;;;10.32;5.32;;;11.20;99.90;;;;;;5050303;28;20379;-65
2021/10/24 08:04:48;;;;;;;10.32;6.15;;;11.70;99.90;;;;;;5034803;28;20040;-66
2021/10/24 08:07:15;;;;;;;10.02;4.80;;;12.10;99.50;;;;;;5050314;28;20056;-65
2021/10/24 08:09:41;;;;;;;5.32;3.80;;;12.50;98.90;;;;;;5047483;28;20075;-66
2021/10/24 08:12:07;;;;;;;11.13;6.15;;;12.90;98.20;;;;;;5050588;28;20025;-69
2021/10/24 08:14:33;;;;;;;7.55;4.72;;;12.60;98.40;;;;;;5053120;28;20039;-66
2021/10/24 08:17:00;;;;;;;6.72;5.50;;;12.60;97.80;;;;;;5052557;28;20029;-70
2021/10/24 08:19:26;;;;;;;5.30;4.10;;;12.40;97.90;;;;;;5053356;28;20033;-66
2021/10/24 08:21:52;;;;;;;7.65;5.07;;;12.60;97.60;;;;;;5053757;28;20170;-67
2021/10/24 08:24:19;;;;;;;5.85;4.28;;;12.50;97.70;;;;;;5053091;28;20060;-67
2021/10/24 08:26:44;;;;;;;11.68;5.53;;;12.50;98.30;;;;;;5052303;28;20471;-65
2021/10/24 08:29:10;;;;;;;8.18;5.13;;;13.20;97.20;;;;;;5042965;28;20056;-66
2021/10/24 08:31:37;;;;;;;6.60;4.50;;;13.40;97.10;;;;;;5055174;28;20064;-67
2021/10/24 08:34:04;;;;;;;9.88;4.10;;;13.10;96.90;;;;;;5048891;28;20025;-64
2021/10/24 08:36:30;;;;;;;10.52;5.32;;;13.70;99.90;;;;;;5051859;28;20109;-63
2021/10/24 08:38:57;;;;;;;5.05;4.35;;;14.10;97.70;;;;;;5040850;28;20134;-67
2021/10/24 08:41:27;;;;;;;6.60;4.20;;;14.40;95.90;;;;;;5045677;28;20428;-66
2021/10/24 08:43:55;;;;;;;24.88;5.43;;;14.20;95.20;;;;;;5051434;28;20025;-69
2021/10/24 08:46:21;;;;;;;7.90;4.18;;;14.40;94.40;;;;;;5051958;28;20469;-66
2021/10/24 08:48:48;;;;;;;5.07;3.33;;;14.30;95.00;;;;;;5053353;28;20101;-66
2021/10/24 08:51:17;;;;;;;9.27;4.75;;;14.80;94.90;;;;;;5053762;28;20113;-65
2021/10/24 08:53:44;;;;;;;6.97;4.30;;;14.80;93.40;;;;;;5053271;28;20103;-66
2021/10/24 08:56:29;;;;;;;7.70;4.38;;;14.90;93.30;;;;;;5050990;28;20037;-66
2021/10/24 08:58:56;;;;;;;6.78;3.90;;;14.50;93.60;;;;;;5044400;28;20501;-65
2021/10/24 09:01:22;;;;;;;8.07;3.95;;;14.60;93.60;;;;;;5031291;28;20468;-65
2021/10/24 09:04:13;;;;;;;6.80;4.40;;;15.30;93.10;;;;;;5033258;28;20044;-66
2021/10/24 09:06:55;;;;;;;6.32;3.65;;;15.60;92.30;;;;;;5031206;28;20124;-66
2021/10/24 09:09:31;;;;;;;6.95;4.25;;;15.30;91.90;;;;;;5031603;28;20120;-67
2021/10/24 09:12:03;;;;;;;5.18;3.42;;;15.40;91.60;;;;;;5051715;28;20067;-48
2021/10/24 09:14:36;;;;;;;;;;;15.90;95.60;;;;;;5052826;28;20048;-68
2021/10/24 09:17:02;;;;;;;4.28;3.53;;;15.60;93.00;;;;;;5051355;28;19959;-66
2021/10/24 09:19:38;;;;;;;7.38;4.13;;;16.10;91.60;;;;;;5052697;28;20036;-66
2021/10/24 09:22:19;;;;;;;5.93;3.75;;;15.20;92.10;;;;;;5049484;28;20033;-67
2021/10/24 09:25:09;;;;;;;13.55;4.53;;;15.40;91.70;;;;;;5043892;28;20112;-65
2021/10/24 09:27:52;;;;;;;5.45;3.80;;;15.40;92.60;;;;;;5048480;28;20061;-67
2021/10/24 09:30:21;;;;;;;9.25;4.57;;;15.40;91.20;;;;;;5051165;28;20124;-78
2021/10/24 09:33:02;;;;;;;6.82;3.95;;;15.70;91.60;;;;;;5053050;28;20025;-67
2021/10/24 09:35:29;;;;;;;8.40;4.38;;;15.90;90.80;;;;;;5046392;28;20124;-66
2021/10/24 09:37:59;;;;;;;6.82;3.72;;;15.70;91.50;;;;;;5051224;28;20539;-67
2021/10/24 09:40:36;;;;;;;7.13;4.43;;;15.10;91.60;;;;;;5049954;28;20059;-67
2021/10/24 09:43:23;;;;;;;4.72;3.78;;;15.60;90.70;;;;;;5052586;28;20029;-68
2021/10/24 09:45:57;;;;;;;10.60;3.88;;;15.10;91.30;;;;;;5052735;28;20029;-67
2021/10/24 09:48:29;;;;;;;7.35;4.20;;;15.10;91.60;;;;;;5043946;28;20482;-69
2021/10/24 09:50:58;;;;;;;8.68;4.35;;;14.50;91.80;;;;;;5049531;28;20033;-72
2021/10/24 09:53:29;;;;;;;8.75;4.00;;;14.70;91.60;;;;;;5048911;28;20359;-67
2021/10/24 09:55:55;;;;;;;6.07;3.78;;;15.80;90.80;;;;;;5050916;28;20124;-67
2021/10/24 09:58:22;;;;;;;6.78;3.72;;;15.40;91.30;;;;;;5032140;28;20128;-68
2021/10/24 10:00:48;;;;;;;7.25;3.72;;;16.10;90.70;;;;;;5031191;28;20021;-67
2021/10/24 10:03:15;;;;;;;10.23;3.10;;;15.50;90.70;;;;;;5031508;28;20111;-67
2021/10/24 10:05:41;;;;;;;4.80;3.50;;;15.10;91.60;;;;;;5031786;28;20053;-67
2021/10/24 10:08:09;;;;;;;6.80;3.22;;;14.60;91.50;;;;;;5033269;28;20032;-69
2021/10/24 10:10:43;;;;;;;4.47;2.92;;;15.50;90.90;;;;;;5047043;28;20450;-67
2021/10/24 10:13:14;;;;;;;6.20;3.58;;;16.00;90.60;;;;;;5048570;28;20028;-69
2021/10/24 10:15:45;;;;;;;6.22;3.80;;;16.70;90.10;;;;;;5046091;28;20442;-67
2021/10/24 10:18:11;;;;;;;12.95;4.15;;;16.30;90.10;;;;;;5067078;28;20041;-69
2021/10/24 10:21:03;;;;;;;5.20;3.50;;;16.90;89.80;;;;;;5048468;28;20456;-67
2021/10/24 10:23:40;;;;;;;6.30;3.47;;;17.80;87.00;;;;;;5047041;28;20091;-68
2021/10/24 10:26:37;;;;;;;8.40;3.75;;;18.00;86.80;;;;;;5050678;28;20037;-69
2021/10/24 10:29:05;;;;;;;10.95;4.80;;;17.80;85.50;;;;;;5051299;28;20029;-68
2021/10/24 10:31:31;;;;;;;8.20;3.22;;;18.30;86.00;;;;;;5050549;28;20025;-68
2021/10/24 10:34:06;;;;;;;8.05;3.42;;;18.10;85.50;;;;;;5050467;28;20040;-68
2021/10/24 10:36:59;;;;;;;7.72;3.90;;;18.70;82.80;;;;;;5050946;28;20087;-67
2021/10/24 10:39:31;;;;;;;3.95;2.63;;;18.60;82.10;;;;;;5050240;28;20044;-68
2021/10/24 10:42:04;;;;;;;7.50;3.47;;;18.60;84.10;;;;;;5051543;28;20060;-67
2021/10/24 10:44:32;;;;;;;7.63;4.05;;;19.00;82.60;;;;;;5050435;28;20021;-68
2021/10/24 10:46:58;;;;;;;7.03;3.50;;;19.20;81.10;;;;;;5033337;28;20129;-68
2021/10/24 10:49:27;;;;;;;8.00;3.88;;;18.00;82.40;;;;;;5050535;28;20461;-66
2021/10/24 10:52:35;;;;;;;4.78;3.45;;;18.70;83.00;;;;;;5049057;28;20021;-67
2021/10/24 10:55:00;;;;;;;7.45;3.50;;;18.20;82.00;;;;;;5049238;28;20032;-66
2021/10/24 10:57:29;;;;;;;8.90;4.18;;;18.20;81.30;;;;;;5049210;28;20033;-67
2021/10/24 10:59:55;;;;;;;4.30;3.40;;;17.60;83.10;;;;;;5047170;28;20474;-65
2021/10/24 11:02:27;;;;;;;8.13;3.42;;;17.90;83.00;;;;;;5044821;28;20090;-66
2021/10/24 11:04:58;;;;;;;6.38;3.58;;;17.60;84.50;;;;;;5038520;28;20501;-65
2021/10/24 11:07:43;;;;;;;7.90;3.25;;;17.40;85.90;;;;;;5048119;28;20040;-66
2021/10/24 11:10:36;;;;;;;7.15;3.28;;;17.50;89.50;;;;;;5049554;28;20086;-65
2021/10/24 11:13:01;;;;;;;4.72;3.17;;;18.00;85.40;;;;;;5045366;28;20034;-65
2021/10/24 11:15:29;;;;;;;6.78;3.25;;;19.30;81.90;;;;;;5046085;28;20036;-67
2021/10/24 11:17:58;;;;;;;6.28;3.70;;;18.80;83.20;;;;;;5048308;28;20044;-66
2021/10/24 11:20:43;;;;;;;6.47;3.72;;;19.50;82.00;;;;;;5046119;28;20467;-69
2021/10/24 11:23:11;;;;;;;5.43;3.53;;;20.50;77.60;;;;;;5029753;28;20029;-67
2021/10/24 11:25:39;;;;;;;9.30;4.15;;;19.90;78.90;;;;;;5040662;28;20116;-66
2021/10/24 11:28:17;;;;;;;6.25;3.47;;;20.40;78.20;;;;;;5048400;28;20036;-66
2021/10/24 11:30:46;;;;;;;5.25;3.58;;;20.00;79.60;;;;;;5045379;28;20204;-65
2021/10/24 11:33:12;;;;;;;5.18;3.25;;;19.80;77.70;;;;;;5047507;28;20423;-64
2021/10/24 11:35:41;;;;;;;5.22;3.10;;;19.50;79.50;;;;;;5042465;28;20096;-67
2021/10/24 11:38:12;;;;;;;4.65;3.17;;;20.40;79.90;;;;;;5046739;28;20029;-66
2021/10/24 11:40:40;;;;;;;7.13;3.13;;;20.20;77.00;;;;;;5046821;28;20331;-66
2021/10/24 11:43:21;;;;;;;5.22;3.17;;;20.10;77.20;;;;;;5043664;28;20067;-67
2021/10/24 11:45:57;;;;;;;5.47;3.67;;;20.50;77.40;;;;;;5048638;28;20032;-68
2021/10/24 11:48:26;;;;;;;6.00;3.30;;;20.10;75.70;;;;;;5050958;28;20318;-66
2021/10/24 11:51:00;;;;;;;7.10;2.92;;;20.00;78.50;;;;;;5052177;28;20128;-66
2021/10/24 11:53:28;;;;;;;4.50;3.40;;;20.90;76.50;;;;;;5044358;28;20030;-66
2021/10/24 11:56:00;;;;;;;6.93;3.72;;;20.20;76.10;;;;;;5049651;28;20478;-66
2021/10/24 12:01:08;;;;;;;4.93;2.40;;;20.70;75.20;;;;;;5050925;28;20518;-65
2021/10/24 12:03:35;;;;;;;24.27;4.43;;;20.80;75.10;;;;;;5052154;28;20488;-66
2021/10/24 12:06:02;;;;;;;4.35;2.92;;;21.50;74.80;;;;;;5051608;28;20078;-66
2021/10/24 12:08:48;;;;;;;4.03;2.20;;;22.30;73.70;;;;;;5052502;28;20029;-66
2021/10/24 12:11:20;;;;;;;14.20;3.00;;;21.80;71.50;;;;;;5050926;28;20093;-67
2021/10/24 12:13:46;;;;;;;4.68;2.38;;;20.80;72.20;;;;;;5047430;28;20038;-65
2021/10/24 12:16:33;;;;;;;3.42;2.40;;;19.70;72.40;;;;;;5052624;28;20186;-65
2021/10/24 12:19:18;;;;;;;4.65;2.22;;;19.80;74.80;;;;;;5049228;28;20029;-67
2021/10/24 12:22:04;;;;;;;7.10;2.90;;;19.60;74.30;;;;;;5052359;28;20087;-67
2021/10/24 12:24:41;;;;;;;7.90;4.50;;;18.60;75.80;;;;;;5048178;28;20428;-70
2021/10/24 12:27:18;;;;;;;6.78;3.92;;;18.00;77.20;;;;;;5048712;28;20454;-66
2021/10/24 12:29:58;;;;;;;9.27;3.90;;;17.50;78.70;;;;;;5049881;28;20104;-71
2021/10/24 12:32:23;;;;;;;5.20;2.63;;;19.50;77.00;;;;;;5050377;28;20443;-69
2021/10/24 12:35:05;;;;;;;4.28;2.28;;;19.30;75.10;;;;;;5051548;28;20023;-68
2021/10/24 12:37:33;;;;;;;5.95;2.72;;;19.50;73.80;;;;;;5049448;28;20029;-70
2021/10/24 12:40:24;;;;;;;7.43;2.35;;;18.20;76.50;;;;;;5048655;28;20130;-49
2021/10/24 12:43:19;;;;;;;4.47;1.38;;;17.80;83.80;;;;;;5051823;28;20029;-53
2021/10/24 12:45:54;;;;;;;3.65;1.80;;;19.90;83.00;;;;;;5034265;28;20044;-51
2021/10/24 12:48:23;;;;;;;4.30;1.75;;;20.30;84.50;;;;;;5049684;28;20448;-49
2021/10/24 12:50:50;;;;;;;9.98;3.53;;;19.80;76.00;;;;;;5051253;28;20040;-49
2021/10/24 12:53:19;;;;;;;3.90;1.67;;;18.90;77.80;;;;;;5047497;28;20473;-69
2021/10/24 12:56:04;;;;;;;4.65;2.63;;;18.80;75.50;;;;;;5058135;28;20029;-69
2021/10/24 12:58:30;;;;;;;5.80;1.90;;;18.70;77.50;;;;;;5048845;28;20098;-69